createdAt,value
2022-10-05T00:01:21.866Z,1.10
2022-10-05T00:04:23.647Z,1.27
2022-10-05T00:07:15.248Z,1.35
2022-10-05T00:10:00.705Z,1.30
2022-10-05T00:12:47.870Z,1.25
2022-10-05T00:15:32.734Z,1.35
2022-10-05T00:18:20.711Z,1.70
2022-10-05T00:21:28.952Z,1.20
2022-10-05T00:24:17.943Z,1.20
2022-10-05T00:27:37.873Z,0.90
2022-10-05T00:30:24.185Z,1.15
2022-10-05T00:33:09.317Z,1.10
2022-10-05T00:35:55.427Z,1.40
2022-10-05T00:38:41.337Z,1.13
2022-10-05T00:41:40.510Z,1.05
2022-10-05T00:45:12.675Z,0.85
2022-10-05T00:48:11.983Z,0.65
2022-10-05T00:51:02.570Z,1.48
2022-10-05T00:53:53.246Z,1.10
2022-10-05T00:56:41.064Z,1.05
2022-10-05T00:59:43.808Z,0.85
2022-10-05T01:03:17.284Z,0.75
2022-10-05T01:06:59.286Z,0.52
2022-10-05T01:09:53.111Z,0.93
2022-10-05T01:13:23.226Z,1.27
2022-10-05T01:16:15.987Z,1.40
2022-10-05T01:19:16.374Z,1.08
2022-10-05T01:22:30.450Z,1.55
2022-10-05T01:25:26.380Z,1.30
2022-10-05T01:28:24.095Z,1.15
2022-10-05T01:31:24.333Z,1.50
2022-10-05T01:34:21.666Z,1.00
2022-10-05T01:37:31.543Z,1.67
2022-10-05T01:43:43.136Z,1.25
2022-10-05T01:46:53.200Z,1.13
2022-10-05T01:49:59.951Z,1.30
2022-10-05T01:52:57.368Z,1.20
2022-10-05T01:55:56.580Z,1.77
2022-10-05T01:58:55.361Z,1.23
2022-10-05T02:02:04.119Z,1.08
2022-10-05T02:05:01.894Z,1.40
2022-10-05T02:07:56.496Z,2.05
2022-10-05T02:11:03.513Z,1.38
2022-10-05T02:14:25.277Z,1.05
2022-10-05T02:17:15.169Z,1.40
2022-10-05T02:22:51.765Z,1.08
2022-10-05T02:25:40.543Z,1.60
2022-10-05T02:28:59.878Z,1.20
2022-10-05T02:31:50.483Z,1.55
2022-10-05T02:34:42.987Z,1.25
2022-10-05T02:37:46.241Z,1.10
2022-10-05T02:40:34.485Z,1.20
2022-10-05T02:43:48.724Z,1.25
2022-10-05T02:46:41.609Z,1.20
2022-10-05T02:49:38.749Z,1.48
2022-10-05T02:52:32.688Z,1.55
2022-10-05T02:55:27.009Z,1.02
2022-10-05T02:58:22.350Z,1.00
2022-10-05T03:01:16.623Z,1.23
2022-10-05T03:04:15.307Z,1.35
2022-10-05T03:07:17.031Z,1.98
2022-10-05T03:10:28.381Z,1.13
2022-10-05T03:13:30.409Z,1.70
2022-10-05T03:16:42.934Z,1.20
2022-10-05T03:19:47.730Z,1.40
2022-10-05T03:22:59.403Z,1.40
2022-10-05T03:25:56.589Z,2.00
2022-10-05T03:28:58.703Z,1.65
2022-10-05T03:31:52.004Z,1.88
2022-10-05T03:34:50.717Z,1.40
2022-10-05T03:37:49.699Z,1.40
2022-10-05T03:40:36.872Z,1.67
2022-10-05T03:43:40.287Z,1.17
2022-10-05T03:47:08.770Z,1.40
2022-10-05T03:50:15.695Z,1.20
2022-10-05T03:53:22.841Z,1.40
2022-10-05T03:56:36.176Z,1.52
2022-10-05T03:59:32.771Z,1.40
2022-10-05T04:02:28.458Z,1.45
2022-10-05T04:05:21.800Z,1.42
2022-10-05T04:08:11.116Z,1.42
2022-10-05T04:10:59.784Z,1.65
2022-10-05T04:13:55.248Z,1.45
2022-10-05T04:16:47.186Z,1.25
2022-10-05T04:19:54.379Z,1.73
2022-10-05T04:22:48.160Z,1.70
2022-10-05T04:25:56.090Z,1.27
2022-10-05T04:28:50.044Z,1.23
2022-10-05T04:31:46.067Z,1.73
2022-10-05T04:34:33.930Z,2.05
2022-10-05T04:37:34.290Z,1.83
2022-10-05T04:40:52.003Z,1.77
2022-10-05T04:43:46.078Z,1.42
2022-10-05T04:47:04.074Z,1.90
2022-10-05T04:50:08.774Z,1.35
2022-10-05T04:53:07.134Z,2.17
2022-10-05T04:56:02.468Z,1.40
2022-10-05T04:59:16.967Z,1.40
2022-10-05T05:02:23.308Z,1.65
2022-10-05T05:05:20.748Z,1.85
2022-10-05T05:08:31.773Z,1.85
2022-10-05T05:11:35.866Z,1.30
2022-10-05T05:14:36.521Z,1.70
2022-10-05T05:17:47.707Z,1.80
2022-10-05T05:20:50.683Z,2.00
2022-10-05T05:24:01.655Z,1.63
2022-10-05T05:27:32.042Z,2.03
2022-10-05T05:30:24.676Z,1.50
2022-10-05T05:33:16.778Z,1.65
2022-10-05T05:36:07.961Z,1.70
2022-10-05T05:39:20.026Z,1.48
2022-10-05T05:42:40.663Z,1.50
2022-10-05T05:45:38.303Z,1.90
2022-10-05T05:48:35.110Z,1.98
2022-10-05T05:51:28.967Z,1.85
2022-10-05T05:54:56.025Z,1.90
2022-10-05T05:57:44.653Z,1.92
2022-10-05T06:00:42.840Z,2.17
2022-10-05T06:03:32.683Z,1.50
2022-10-05T06:06:19.305Z,1.40
2022-10-05T06:09:14.568Z,1.52
2022-10-05T06:12:14.308Z,1.63
2022-10-05T06:15:25.797Z,2.00
2022-10-05T06:18:14.112Z,1.48
2022-10-05T06:21:26.822Z,1.50
2022-10-05T06:24:22.203Z,1.88
2022-10-05T06:27:25.814Z,1.80
2022-10-05T06:30:17.627Z,1.42
2022-10-05T06:33:11.877Z,2.22
2022-10-05T06:36:17.515Z,2.17
2022-10-05T06:39:17.685Z,1.77
2022-10-05T06:42:14.874Z,2.10
2022-10-05T06:45:11.438Z,1.77
2022-10-05T06:48:05.496Z,1.80
2022-10-05T06:51:19.834Z,2.05
2022-10-05T06:54:35.050Z,1.52
2022-10-05T06:57:38.454Z,1.88
2022-10-05T07:00:27.963Z,2.20
2022-10-05T07:03:42.162Z,2.25
2022-10-05T07:06:51.480Z,2.17
2022-10-05T07:09:46.478Z,1.50
2022-10-05T07:12:58.499Z,1.40
2022-10-05T07:16:13.652Z,1.85
2022-10-05T07:19:15.526Z,2.40
2022-10-05T07:22:35.429Z,1.63
2022-10-05T07:25:30.287Z,1.58
2022-10-05T07:28:24.777Z,1.95
2022-10-05T07:31:46.085Z,1.95
2022-10-05T07:34:43.044Z,1.60
2022-10-05T07:37:57.013Z,1.80
2022-10-05T07:40:53.041Z,2.33
2022-10-05T07:44:00.973Z,2.20
2022-10-05T07:47:04.378Z,1.98
2022-10-05T07:50:08.405Z,1.85
2022-10-05T07:52:58.375Z,2.40
2022-10-05T07:55:52.383Z,1.63
2022-10-05T07:58:44.328Z,1.85
2022-10-05T08:01:34.110Z,1.80
2022-10-05T08:04:28.129Z,1.67
2022-10-05T08:07:17.125Z,1.60
2022-10-05T08:10:05.344Z,1.50
2022-10-05T08:13:05.571Z,1.55
2022-10-05T08:15:55.929Z,1.80
2022-10-05T08:19:02.718Z,1.30
2022-10-05T08:21:55.702Z,1.75
2022-10-05T08:24:53.867Z,1.33
2022-10-05T08:27:54.036Z,1.77
2022-10-05T08:30:55.021Z,1.25
2022-10-05T08:34:04.937Z,1.48
2022-10-05T08:36:58.639Z,1.40
2022-10-05T08:40:04.212Z,1.42
2022-10-05T08:42:58.366Z,1.48
2022-10-05T08:45:52.435Z,1.70
2022-10-05T08:49:01.404Z,1.65
2022-10-05T08:52:09.844Z,1.90
2022-10-05T08:55:10.471Z,1.80
2022-10-05T08:58:20.457Z,1.33
2022-10-05T09:01:37.920Z,1.60
2022-10-05T09:04:52.413Z,1.20
2022-10-05T09:08:08.593Z,1.40
2022-10-05T09:11:16.649Z,1.48
2022-10-05T09:14:13.909Z,1.67
2022-10-05T09:17:02.123Z,1.60
2022-10-05T09:20:09.773Z,1.10
2022-10-05T09:23:02.496Z,1.15
2022-10-05T09:25:57.350Z,1.10
2022-10-05T09:29:20.735Z,1.30
2022-10-05T09:32:28.065Z,1.20
2022-10-05T09:35:35.070Z,1.25
2022-10-05T09:38:45.941Z,1.50
2022-10-05T09:41:51.936Z,1.20
2022-10-05T09:45:17.760Z,1.42
2022-10-05T09:48:31.003Z,1.65
2022-10-05T09:51:41.909Z,1.52
2022-10-05T09:54:36.202Z,1.48
2022-10-05T09:57:30.232Z,1.90
2022-10-05T10:01:03.656Z,1.70
2022-10-05T10:04:01.247Z,1.40
2022-10-05T10:07:21.052Z,1.65
2022-10-05T10:10:41.885Z,1.42
2022-10-05T10:13:33.061Z,1.60
2022-10-05T10:16:17.951Z,1.75
2022-10-05T10:19:25.206Z,1.25
2022-10-05T10:22:28.996Z,1.38
2022-10-05T10:25:27.308Z,1.75
2022-10-05T10:28:54.273Z,1.38
2022-10-05T10:32:07.028Z,1.80
2022-10-05T10:35:05.613Z,1.80
2022-10-05T10:37:53.048Z,1.73
2022-10-05T10:40:46.644Z,1.80
2022-10-05T10:43:31.671Z,1.67
2022-10-05T10:46:34.283Z,1.92
2022-10-05T10:49:46.781Z,1.65
2022-10-05T10:53:01.686Z,1.50
2022-10-05T10:55:59.470Z,1.67
2022-10-05T10:59:26.561Z,1.90
2022-10-05T11:02:23.401Z,1.75
2022-10-05T11:05:08.360Z,1.80
2022-10-05T11:08:18.266Z,1.80
2022-10-05T11:11:22.482Z,2.17
2022-10-05T11:14:32.326Z,2.08
2022-10-05T11:20:31.518Z,2.03
2022-10-05T11:23:38.746Z,1.67
2022-10-05T11:26:42.409Z,2.08
2022-10-05T11:29:33.739Z,1.42
2022-10-05T11:32:25.055Z,2.00
2022-10-05T11:35:29.613Z,1.60
2022-10-05T11:38:39.525Z,1.92
2022-10-05T11:41:32.884Z,1.70
2022-10-05T11:44:52.243Z,1.70
2022-10-05T11:47:42.892Z,1.90
2022-10-05T11:50:51.654Z,2.70
2022-10-05T11:53:50.559Z,1.95
2022-10-05T11:56:44.899Z,1.77
2022-10-05T11:59:49.166Z,1.85
2022-10-05T12:02:53.218Z,2.08
2022-10-05T12:06:02.908Z,2.05
2022-10-05T12:12:03.782Z,1.92
2022-10-05T12:15:02.707Z,2.28
2022-10-05T12:18:08.196Z,1.50
2022-10-05T12:21:02.088Z,1.67
2022-10-05T12:24:14.380Z,1.60
2022-10-05T12:27:06.180Z,2.00
2022-10-05T12:30:03.373Z,1.75
2022-10-05T12:33:02.464Z,1.90
2022-10-05T12:36:13.423Z,2.13
2022-10-05T12:39:19.397Z,2.40
2022-10-05T12:42:13.752Z,2.67
2022-10-05T12:45:04.942Z,2.53
2022-10-05T12:48:38.806Z,3.03
2022-10-05T12:51:36.945Z,2.75
2022-10-05T12:54:27.000Z,2.40
2022-10-05T12:57:34.176Z,2.70
2022-10-05T13:00:23.252Z,2.20
2022-10-05T13:03:27.620Z,2.90
2022-10-05T13:06:23.245Z,2.95
2022-10-05T13:09:26.923Z,3.83
2022-10-05T13:12:36.005Z,3.00
2022-10-05T13:15:47.016Z,3.00
2022-10-05T13:19:11.193Z,3.83
2022-10-05T13:22:05.209Z,2.85
2022-10-05T13:24:53.346Z,3.28
2022-10-05T13:27:48.161Z,4.22
2022-10-05T13:30:36.258Z,3.40
2022-10-05T13:33:38.985Z,3.88
2022-10-05T13:36:38.178Z,4.07
2022-10-05T13:39:55.767Z,3.53
2022-10-05T13:42:48.253Z,4.80
2022-10-05T13:45:51.251Z,3.05
2022-10-05T13:49:00.585Z,2.97
2022-10-05T13:52:08.635Z,2.75
2022-10-05T13:55:15.860Z,2.45
2022-10-05T13:58:27.582Z,2.92
2022-10-05T14:01:26.462Z,3.63
2022-10-05T14:04:22.123Z,2.85
2022-10-05T14:07:34.803Z,2.85
2022-10-05T14:10:34.138Z,2.78
2022-10-05T14:16:12.643Z,2.70
2022-10-05T14:19:16.730Z,2.65
2022-10-05T14:22:11.877Z,3.15
2022-10-05T14:25:19.826Z,2.63
2022-10-05T14:28:28.356Z,2.60
2022-10-05T14:31:16.329Z,2.83
2022-10-05T14:34:31.988Z,2.75
2022-10-05T14:37:21.476Z,2.28
2022-10-05T14:40:31.107Z,2.72
2022-10-05T14:43:15.984Z,1.70
2022-10-05T14:46:29.726Z,1.50
2022-10-05T14:49:37.307Z,1.58
2022-10-05T14:52:32.583Z,1.10
2022-10-05T14:55:30.190Z,0.85
2022-10-05T14:58:39.916Z,0.90
2022-10-05T15:01:33.902Z,0.60
2022-10-05T15:04:31.823Z,0.80
2022-10-05T15:07:42.585Z,0.70
2022-10-05T15:10:30.778Z,0.50
2022-10-05T15:13:20.403Z,0.43
2022-10-05T15:16:24.678Z,0.51
2022-10-05T15:19:21.086Z,0.40
2022-10-05T15:22:25.168Z,0.50
2022-10-05T15:25:15.942Z,0.30
2022-10-05T15:28:16.387Z,0.85
2022-10-05T15:31:05.205Z,0.57
2022-10-05T15:33:55.523Z,0.30
2022-10-05T15:37:17.030Z,0.47
2022-10-05T15:40:07.438Z,0.30
2022-10-05T15:42:58.614Z,0.50
2022-10-05T15:45:53.941Z,0.20
2022-10-05T15:49:08.580Z,0.90
2022-10-05T15:52:05.845Z,0.50
2022-10-05T15:55:22.151Z,0.75
2022-10-05T15:58:31.257Z,0.60
2022-10-05T16:01:51.766Z,0.50
2022-10-05T16:05:05.228Z,0.60
2022-10-05T16:08:12.406Z,0.55
2022-10-05T16:10:58.854Z,0.70
2022-10-05T16:14:29.119Z,0.93
2022-10-05T16:17:36.257Z,0.52
2022-10-05T16:20:41.051Z,0.52
2022-10-05T16:23:39.597Z,0.60
2022-10-05T16:26:24.603Z,0.50
2022-10-05T16:29:27.663Z,0.50
2022-10-05T16:32:18.685Z,0.50
2022-10-05T16:35:24.851Z,0.35
2022-10-05T16:38:27.047Z,0.20
2022-10-05T16:41:35.226Z,0.40
2022-10-05T16:44:44.254Z,0.35
2022-10-05T16:47:45.608Z,0.35
2022-10-05T16:50:49.595Z,0.45
2022-10-05T16:53:58.457Z,0.50
2022-10-05T16:56:53.785Z,0.67
2022-10-05T16:59:57.517Z,0.60
2022-10-05T17:03:01.822Z,0.83
2022-10-05T17:06:05.979Z,0.50
2022-10-05T17:09:28.638Z,0.50
2022-10-05T17:12:48.076Z,0.50
2022-10-05T17:16:00.729Z,0.65
2022-10-05T17:18:58.009Z,0.55
2022-10-05T17:21:50.039Z,0.50
2022-10-05T17:25:14.219Z,0.60
2022-10-05T17:28:11.775Z,0.60
2022-10-05T17:31:02.801Z,0.77
2022-10-05T17:33:59.882Z,0.80
2022-10-05T17:36:57.616Z,0.70
2022-10-05T17:39:57.643Z,0.43
2022-10-05T17:42:42.615Z,0.73
2022-10-05T17:45:33.685Z,0.70
2022-10-05T17:48:44.050Z,0.63
2022-10-05T17:51:47.689Z,0.80
2022-10-05T17:55:19.161Z,0.70
2022-10-05T17:58:23.769Z,0.60
2022-10-05T18:01:30.096Z,1.08
2022-10-05T18:04:19.463Z,0.90
2022-10-05T18:07:17.639Z,0.40
2022-10-05T18:10:11.887Z,0.70
2022-10-05T18:12:59.964Z,0.90
2022-10-05T18:15:48.406Z,0.60
2022-10-05T18:18:38.558Z,0.73
2022-10-05T18:21:32.876Z,0.65
2022-10-05T18:24:45.506Z,0.75
2022-10-05T18:27:51.294Z,0.77
2022-10-05T18:31:15.508Z,0.73
2022-10-05T18:34:07.919Z,0.85
2022-10-05T18:37:31.543Z,1.30
2022-10-05T18:40:38.376Z,1.05
2022-10-05T18:43:32.301Z,1.15
2022-10-05T18:46:32.488Z,1.50
2022-10-05T18:49:39.405Z,1.00
2022-10-05T18:52:39.617Z,1.15
2022-10-05T18:55:49.398Z,1.30
2022-10-05T19:01:57.059Z,1.67
2022-10-05T19:04:53.945Z,1.58
2022-10-05T19:08:00.029Z,1.40
2022-10-05T19:11:10.898Z,1.55
2022-10-05T19:14:11.004Z,1.67
2022-10-05T19:17:17.742Z,1.15
2022-10-05T19:20:20.869Z,1.73
2022-10-05T19:23:33.350Z,1.85
2022-10-05T19:26:44.036Z,1.45
2022-10-05T19:29:47.058Z,1.63
2022-10-05T19:32:50.973Z,1.38
2022-10-05T19:36:11.671Z,1.50
2022-10-05T19:39:16.784Z,1.45
2022-10-05T19:42:31.603Z,2.00
2022-10-05T19:45:24.596Z,1.42
2022-10-05T19:48:44.501Z,2.03
2022-10-05T19:51:32.881Z,1.65
2022-10-05T19:54:26.768Z,1.73
2022-10-05T19:57:19.449Z,1.80
2022-10-05T20:00:04.865Z,1.63
2022-10-05T20:02:51.213Z,1.50
2022-10-05T20:05:36.155Z,2.22
2022-10-05T20:08:25.282Z,1.45
2022-10-05T20:11:16.334Z,1.92
2022-10-05T20:14:01.672Z,1.95
2022-10-05T20:17:05.414Z,1.92
2022-10-05T20:20:26.229Z,1.55
2022-10-05T20:23:27.855Z,1.88
2022-10-05T20:26:57.295Z,2.08
2022-10-05T20:29:44.384Z,2.03
2022-10-05T20:32:30.803Z,1.97
2022-10-05T20:35:18.099Z,2.33
2022-10-05T20:38:03.128Z,2.13
2022-10-05T20:40:48.279Z,2.30
2022-10-05T20:43:33.340Z,2.65
2022-10-05T20:46:18.641Z,2.13
2022-10-05T20:49:04.131Z,2.30
2022-10-05T20:51:49.503Z,2.08
2022-10-05T20:54:34.588Z,2.00
2022-10-05T20:57:21.232Z,2.90
2022-10-05T21:00:06.949Z,2.58
2022-10-05T21:02:52.093Z,2.65
2022-10-05T21:05:36.941Z,2.20
2022-10-05T21:08:21.830Z,2.47
2022-10-05T21:11:08.900Z,2.15
2022-10-05T21:13:54.504Z,2.90
2022-10-05T21:16:41.173Z,2.58
2022-10-05T21:19:26.109Z,2.45
2022-10-05T21:22:11.126Z,2.33
2022-10-05T21:24:56.528Z,2.53
2022-10-05T21:27:41.726Z,2.25
2022-10-05T21:30:26.877Z,2.45
2022-10-05T21:33:17.230Z,2.76
2022-10-05T21:36:03.157Z,2.97
2022-10-05T21:38:49.491Z,2.53
2022-10-05T21:41:34.434Z,2.72
2022-10-05T21:44:19.388Z,2.78
2022-10-05T21:47:06.794Z,2.13
2022-10-05T21:49:52.428Z,2.83
2022-10-05T21:52:37.522Z,2.42
2022-10-05T21:55:23.024Z,2.70
2022-10-05T21:58:08.442Z,2.92
2022-10-05T22:00:53.681Z,2.08
2022-10-05T22:03:39.028Z,3.00
2022-10-05T22:06:24.067Z,2.58
2022-10-05T22:09:09.241Z,3.00
2022-10-05T22:11:54.937Z,2.78
2022-10-05T22:14:39.975Z,2.45
2022-10-05T22:17:28.929Z,2.88
2022-10-05T22:20:14.516Z,1.90
2022-10-05T22:23:00.115Z,2.80
2022-10-05T22:25:46.019Z,2.90
2022-10-05T22:28:32.971Z,2.42
2022-10-05T22:31:18.714Z,3.25
2022-10-05T22:34:09.649Z,2.68
2022-10-05T22:36:54.693Z,2.90
2022-10-05T22:39:40.443Z,3.00
2022-10-05T22:42:25.659Z,2.30
2022-10-05T22:45:10.732Z,2.42
2022-10-05T22:47:56.081Z,2.78
2022-10-05T22:50:44.407Z,2.47
2022-10-05T22:53:29.313Z,2.70
2022-10-05T22:56:15.452Z,2.53
2022-10-05T22:59:00.611Z,2.28
2022-10-05T23:01:45.667Z,3.35
2022-10-05T23:04:30.913Z,2.20
2022-10-05T23:07:15.966Z,2.85
2022-10-05T23:10:00.992Z,2.50
2022-10-05T23:12:57.191Z,2.80
2022-10-05T23:15:45.401Z,3.15
2022-10-05T23:18:30.925Z,2.80
2022-10-05T23:21:17.098Z,3.15
2022-10-05T23:24:02.057Z,3.30
2022-10-05T23:26:47.301Z,3.28
2022-10-05T23:29:32.177Z,2.45
2022-10-05T23:32:17.449Z,3.10
2022-10-05T23:35:06.333Z,3.75
2022-10-05T23:37:51.247Z,3.13
2022-10-05T23:40:36.267Z,3.00
2022-10-05T23:43:21.870Z,3.53
2022-10-05T23:46:08.621Z,2.97
2022-10-05T23:48:53.677Z,2.55
2022-10-05T23:51:38.601Z,2.70
2022-10-05T23:54:23.854Z,2.70
2022-10-05T23:57:08.732Z,2.40
2022-10-05T23:59:56.144Z,2.75
